createdAt,value
2022-10-08T00:01:04.884Z,20.42
2022-10-08T00:04:11.160Z,21.83
2022-10-08T00:07:13.966Z,23.05
2022-10-08T00:10:16.677Z,22.83
2022-10-08T00:13:19.352Z,22.33
2022-10-08T00:16:24.130Z,26.45
2022-10-08T00:19:27.501Z,23.27
2022-10-08T00:22:30.272Z,23.00
2022-10-08T00:25:37.973Z,24.87
2022-10-08T00:28:43.866Z,20.00
2022-10-08T00:31:48.766Z,19.58
2022-10-08T00:34:51.856Z,25.33
2022-10-08T00:37:54.564Z,24.52
2022-10-08T00:40:58.180Z,25.62
2022-10-08T00:44:03.975Z,20.20
2022-10-08T00:47:16.344Z,25.00
2022-10-08T00:50:39.910Z,24.77
2022-10-08T00:53:44.043Z,21.00
2022-10-08T00:56:52.941Z,23.87
2022-10-08T00:59:56.635Z,21.58
2022-10-08T01:02:59.734Z,21.33
2022-10-08T01:06:23.833Z,21.35
2022-10-08T01:09:35.680Z,20.65
2022-10-08T01:13:06.383Z,23.42
2022-10-08T01:16:34.473Z,21.80
2022-10-08T01:19:56.682Z,23.70
2022-10-08T01:23:21.931Z,25.17
2022-10-08T01:26:57.581Z,26.27
2022-10-08T01:30:09.276Z,25.15
2022-10-08T01:33:18.998Z,26.40
2022-10-08T01:36:25.090Z,25.48
2022-10-08T01:39:33.678Z,24.15
2022-10-08T01:42:40.034Z,21.40
2022-10-08T01:45:49.572Z,21.77
2022-10-08T01:48:56.437Z,22.77
2022-10-08T01:52:10.726Z,22.75
2022-10-08T01:55:37.209Z,23.30
2022-10-08T01:59:04.198Z,21.10
2022-10-08T02:02:22.133Z,21.33
2022-10-08T02:05:29.884Z,22.27
2022-10-08T02:08:32.890Z,23.98
2022-10-08T02:11:36.375Z,20.90
2022-10-08T02:14:43.536Z,21.65
2022-10-08T02:18:09.253Z,20.42
2022-10-08T02:21:24.549Z,21.95
2022-10-08T02:24:33.897Z,24.00
2022-10-08T02:28:12.068Z,21.80
2022-10-08T02:31:45.460Z,22.25
2022-10-08T02:34:57.825Z,19.15
2022-10-08T02:38:08.610Z,21.03
2022-10-08T02:41:12.648Z,20.52
2022-10-08T02:44:26.455Z,20.77
2022-10-08T02:47:32.991Z,20.27
2022-10-08T02:50:41.551Z,24.37
2022-10-08T02:53:46.041Z,21.40
2022-10-08T02:56:55.873Z,24.20
2022-10-08T02:59:59.203Z,20.12
2022-10-08T03:03:13.277Z,20.30
2022-10-08T03:06:18.503Z,20.05
2022-10-08T03:09:24.188Z,19.83
2022-10-08T03:12:27.021Z,21.55
2022-10-08T03:15:33.129Z,23.65
2022-10-08T03:18:37.940Z,20.30
2022-10-08T03:21:43.051Z,21.65
2022-10-08T03:24:45.961Z,21.00
2022-10-08T03:27:51.012Z,21.80
2022-10-08T03:30:53.657Z,20.67
2022-10-08T03:33:57.583Z,20.52
2022-10-08T03:37:00.432Z,22.33
2022-10-08T03:40:03.492Z,21.55
2022-10-08T03:43:06.184Z,22.02
2022-10-08T03:46:10.353Z,22.00
2022-10-08T03:49:13.110Z,20.37
2022-10-08T03:52:15.816Z,21.62
2022-10-08T03:55:18.708Z,22.37
2022-10-08T03:58:21.526Z,21.52
2022-10-08T04:01:25.725Z,23.38
2022-10-08T04:04:29.220Z,23.48
2022-10-08T04:10:38.633Z,22.37
2022-10-08T04:13:41.769Z,20.73
2022-10-08T04:16:44.557Z,22.83
2022-10-08T04:19:47.191Z,23.58
2022-10-08T04:22:50.211Z,23.20
2022-10-08T04:25:54.201Z,21.15
2022-10-08T04:28:57.164Z,26.37
2022-10-08T04:31:59.788Z,31.95
2022-10-08T04:35:02.558Z,27.27
2022-10-08T04:38:05.248Z,22.15
2022-10-08T04:41:16.368Z,21.70
2022-10-08T04:44:19.004Z,26.55
2022-10-08T04:47:21.805Z,23.50
2022-10-08T04:50:27.094Z,23.50
2022-10-08T04:53:30.173Z,22.55
2022-10-08T04:56:35.497Z,25.12
2022-10-08T04:59:53.768Z,26.52
2022-10-08T05:03:01.142Z,24.30
2022-10-08T05:06:04.521Z,21.85
2022-10-08T05:09:07.465Z,24.73
2022-10-08T05:12:10.280Z,23.65
2022-10-08T05:15:12.950Z,23.45
2022-10-08T05:18:15.770Z,26.75
2022-10-08T05:21:23.547Z,23.77
2022-10-08T05:24:27.000Z,24.50
2022-10-08T05:27:29.698Z,25.40
2022-10-08T05:30:32.485Z,26.42
2022-10-08T05:33:38.483Z,28.55
2022-10-08T05:36:41.739Z,24.92
2022-10-08T05:39:45.586Z,24.67
2022-10-08T05:45:51.964Z,21.85
2022-10-08T05:48:56.368Z,21.87
2022-10-08T05:51:59.018Z,22.35
2022-10-08T05:55:01.707Z,25.25
2022-10-08T05:58:04.501Z,22.55
2022-10-08T06:01:12.701Z,25.60
2022-10-08T06:04:15.894Z,21.62
2022-10-08T06:07:18.634Z,24.92
2022-10-08T06:10:21.571Z,23.50
2022-10-08T06:13:24.383Z,24.77
2022-10-08T06:16:29.442Z,26.73
2022-10-08T06:19:34.125Z,24.70
2022-10-08T06:22:37.004Z,26.05
2022-10-08T06:25:39.436Z,26.30
2022-10-08T06:28:42.460Z,25.83
2022-10-08T06:31:46.399Z,26.27
2022-10-08T06:34:49.467Z,22.60
2022-10-08T06:37:52.040Z,23.67
2022-10-08T06:40:57.926Z,25.15
2022-10-08T06:44:01.783Z,23.67
2022-10-08T06:47:04.781Z,23.90
2022-10-08T06:50:08.430Z,25.48
2022-10-08T06:53:11.953Z,23.30
2022-10-08T06:56:18.065Z,26.65
2022-10-08T06:59:20.979Z,22.52
2022-10-08T07:02:23.542Z,22.45
2022-10-08T07:05:26.573Z,24.73
2022-10-08T07:08:29.364Z,21.37
2022-10-08T07:11:34.932Z,25.02
2022-10-08T07:14:37.408Z,21.83
2022-10-08T07:17:40.589Z,24.80
2022-10-08T07:20:43.057Z,27.25
2022-10-08T07:23:46.160Z,21.98
2022-10-08T07:26:48.800Z,23.25
2022-10-08T07:32:53.977Z,22.67
2022-10-08T07:39:12.173Z,20.77
2022-10-08T07:42:15.183Z,19.15
2022-10-08T07:45:17.876Z,20.75
2022-10-08T07:48:21.045Z,18.02
2022-10-08T07:54:26.342Z,17.25
2022-10-08T07:57:28.829Z,17.35
2022-10-08T08:00:31.757Z,16.15
2022-10-08T08:03:35.223Z,15.25
2022-10-08T08:06:44.275Z,15.77
2022-10-08T08:09:47.472Z,14.43
2022-10-08T08:12:50.286Z,17.70
2022-10-08T08:16:01.373Z,15.80
2022-10-08T08:19:04.488Z,14.77
2022-10-08T08:22:07.336Z,15.02
2022-10-08T08:25:10.002Z,14.60
2022-10-08T08:28:12.778Z,15.00
2022-10-08T08:31:28.228Z,13.77
2022-10-08T08:34:33.985Z,17.33
2022-10-08T08:37:36.653Z,13.88
2022-10-08T08:40:39.353Z,14.00
2022-10-08T08:43:42.057Z,15.88
2022-10-08T08:46:54.707Z,13.32
2022-10-08T08:50:03.145Z,14.02
2022-10-08T08:53:09.864Z,13.62
2022-10-08T08:56:15.972Z,14.07
2022-10-08T08:59:31.875Z,12.73
2022-10-08T09:02:40.541Z,14.30
2022-10-08T09:05:46.950Z,13.20
2022-10-08T09:09:20.468Z,15.38
2022-10-08T09:12:32.669Z,16.17
2022-10-08T09:15:38.243Z,13.05
2022-10-08T09:18:51.835Z,16.98
2022-10-08T09:21:55.821Z,15.55
2022-10-08T09:25:01.448Z,16.75
2022-10-08T09:28:04.828Z,14.35
2022-10-08T09:31:28.259Z,13.70
2022-10-08T09:34:31.336Z,12.27
2022-10-08T09:37:36.409Z,13.10
2022-10-08T09:40:39.122Z,15.70
2022-10-08T09:43:41.960Z,12.70
2022-10-08T09:46:46.037Z,13.90
2022-10-08T09:50:21.818Z,13.50
2022-10-08T09:53:29.167Z,13.70
2022-10-08T09:56:31.943Z,12.32
2022-10-08T09:59:41.813Z,10.77
2022-10-08T10:02:44.740Z,11.50
2022-10-08T10:05:52.431Z,11.52
2022-10-08T10:09:32.368Z,12.05
2022-10-08T10:12:42.323Z,13.07
2022-10-08T10:15:50.738Z,12.68
2022-10-08T10:19:08.790Z,13.00
2022-10-08T10:22:21.846Z,10.55
2022-10-08T10:25:50.498Z,10.95
2022-10-08T10:28:57.969Z,8.90
2022-10-08T10:32:13.430Z,11.23
2022-10-08T10:35:29.378Z,9.82
2022-10-08T10:38:42.806Z,10.45
2022-10-08T10:41:53.435Z,9.65
2022-10-08T10:45:01.593Z,8.30
2022-10-08T10:48:05.384Z,11.55
2022-10-08T10:51:31.420Z,9.40
2022-10-08T10:54:39.980Z,9.68
2022-10-08T10:58:01.318Z,10.73
2022-10-08T11:01:15.752Z,10.15
2022-10-08T11:04:36.775Z,12.20
2022-10-08T11:07:58.982Z,22.55
2022-10-08T11:11:15.314Z,10.15
2022-10-08T11:14:51.684Z,7.85
2022-10-08T11:18:32.354Z,12.15
2022-10-08T11:22:03.744Z,9.27
2022-10-08T11:26:02.116Z,14.07
2022-10-08T11:29:17.117Z,9.55
2022-10-08T11:32:20.670Z,8.50
2022-10-08T11:35:42.647Z,8.20
2022-10-08T11:38:48.869Z,7.03
2022-10-08T11:41:55.580Z,9.65
2022-10-08T11:45:38.251Z,6.97
2022-10-08T11:48:41.489Z,10.10
2022-10-08T11:51:46.607Z,6.32
2022-10-08T11:54:55.194Z,6.03
2022-10-08T11:58:09.403Z,6.05
2022-10-08T12:01:12.092Z,6.20
2022-10-08T12:04:27.416Z,6.90
2022-10-08T12:07:36.389Z,7.43
2022-10-08T12:10:41.220Z,6.87
2022-10-08T12:13:43.844Z,6.82
2022-10-08T12:17:05.765Z,12.25
2022-10-08T12:20:21.984Z,6.03
2022-10-08T12:23:24.856Z,8.48
2022-10-08T12:26:27.291Z,6.47
2022-10-08T12:29:54.950Z,9.18
2022-10-08T12:32:57.700Z,7.30
2022-10-08T12:36:12.819Z,7.15
2022-10-08T12:39:18.230Z,8.45
2022-10-08T12:42:27.910Z,6.32
2022-10-08T12:45:40.036Z,5.70
2022-10-08T12:49:10.523Z,6.65
2022-10-08T12:52:15.864Z,6.55
2022-10-08T12:55:23.027Z,9.80
2022-10-08T12:58:33.545Z,7.40
2022-10-08T13:01:36.823Z,7.05
2022-10-08T13:04:46.530Z,8.98
2022-10-08T13:07:50.002Z,7.50
2022-10-08T13:10:52.719Z,9.50
2022-10-08T13:13:56.180Z,7.07
2022-10-08T13:16:59.410Z,9.50
2022-10-08T13:20:18.534Z,7.57
2022-10-08T13:23:25.640Z,8.32
2022-10-08T13:26:49.863Z,6.87
2022-10-08T13:29:52.945Z,9.73
2022-10-08T13:33:11.563Z,8.77
2022-10-08T13:36:21.614Z,7.60
2022-10-08T13:39:31.605Z,6.50
2022-10-08T13:42:39.490Z,6.75
2022-10-08T13:45:42.613Z,8.15
2022-10-08T13:51:49.313Z,7.40
2022-10-08T13:54:58.829Z,8.70
2022-10-08T13:58:04.466Z,8.93
2022-10-08T14:01:07.205Z,7.85
2022-10-08T14:04:10.300Z,11.88
2022-10-08T14:07:27.687Z,6.87
2022-10-08T14:10:31.103Z,8.00
2022-10-08T14:13:33.567Z,9.25
2022-10-08T14:16:36.565Z,8.27
2022-10-08T14:19:39.248Z,9.52
2022-10-08T14:22:43.571Z,9.93
2022-10-08T14:25:46.645Z,7.35
2022-10-08T14:28:49.615Z,7.45
2022-10-08T14:31:52.159Z,8.75
2022-10-08T14:34:55.366Z,8.40
2022-10-08T14:37:58.009Z,8.13
2022-10-08T14:41:01.046Z,8.60
2022-10-08T14:44:03.849Z,10.27
2022-10-08T14:47:06.801Z,8.68
2022-10-08T14:50:09.939Z,7.62
2022-10-08T14:53:14.002Z,10.80
2022-10-08T14:56:16.583Z,10.43
2022-10-08T14:59:19.786Z,8.23
2022-10-08T15:05:24.974Z,8.55
2022-10-08T15:08:28.250Z,7.15
2022-10-08T15:11:31.981Z,8.40
2022-10-08T15:14:37.945Z,8.77
2022-10-08T15:17:41.810Z,8.15
2022-10-08T15:23:47.588Z,9.43
2022-10-08T15:26:50.008Z,9.23
2022-10-08T15:29:53.080Z,9.55
2022-10-08T15:32:55.576Z,9.27
2022-10-08T15:35:58.573Z,9.95
2022-10-08T15:39:02.219Z,9.18
2022-10-08T15:42:05.454Z,9.90
2022-10-08T15:45:08.209Z,13.18
2022-10-08T15:48:13.066Z,11.85
2022-10-08T15:51:15.587Z,10.65
2022-10-08T15:57:20.938Z,9.95
2022-10-08T16:00:24.119Z,11.43
2022-10-08T16:06:34.283Z,12.80
2022-10-08T16:09:37.333Z,10.13
2022-10-08T16:12:39.948Z,11.30
2022-10-08T16:15:48.973Z,11.45
2022-10-08T16:18:58.153Z,11.52
2022-10-08T16:22:02.934Z,12.40
2022-10-08T16:25:10.226Z,17.02
2022-10-08T16:28:15.086Z,15.05
2022-10-08T16:31:19.441Z,15.80
2022-10-08T16:34:24.058Z,13.45
2022-10-08T16:37:26.769Z,13.52
2022-10-08T16:40:29.548Z,13.30
2022-10-08T16:43:33.069Z,15.40
2022-10-08T16:46:40.635Z,14.30
2022-10-08T16:49:49.742Z,16.42
2022-10-08T16:53:07.660Z,16.10
2022-10-08T16:56:11.437Z,14.98
2022-10-08T17:02:41.039Z,17.20
2022-10-08T17:08:47.445Z,15.27
2022-10-08T17:11:50.336Z,16.02
2022-10-08T17:15:11.362Z,15.30
2022-10-08T17:18:14.190Z,20.27
2022-10-08T17:24:50.835Z,17.15
2022-10-08T17:28:20.566Z,17.73
2022-10-08T17:31:31.863Z,16.95
2022-10-08T17:34:34.723Z,16.05
2022-10-08T17:40:40.014Z,17.52
2022-10-08T17:43:43.660Z,15.32
2022-10-08T17:46:48.020Z,20.15
2022-10-08T17:49:50.781Z,22.02
2022-10-08T17:52:53.577Z,17.10
2022-10-08T17:56:05.194Z,18.67
2022-10-08T17:59:08.839Z,15.38
2022-10-08T18:02:11.621Z,17.58
2022-10-08T18:08:16.976Z,16.23
2022-10-08T18:11:20.451Z,19.60
2022-10-08T18:14:23.244Z,15.18
2022-10-08T18:17:26.387Z,18.45
2022-10-08T18:20:28.818Z,20.02
2022-10-08T18:23:33.546Z,15.60
2022-10-08T18:26:37.076Z,18.33
2022-10-08T18:29:40.484Z,19.23
2022-10-08T18:32:42.985Z,16.37
2022-10-08T18:35:46.227Z,15.10
2022-10-08T18:39:00.422Z,21.90
2022-10-08T18:42:03.606Z,31.98
2022-10-08T18:45:06.552Z,20.35
2022-10-08T18:48:09.713Z,16.70
2022-10-08T18:51:14.601Z,21.12
2022-10-08T18:54:17.852Z,17.00
2022-10-08T18:57:20.276Z,18.23
2022-10-08T19:00:26.488Z,15.30
2022-10-08T19:03:28.933Z,18.83
2022-10-08T19:06:36.529Z,16.87
2022-10-08T19:09:39.107Z,20.80
2022-10-08T19:15:44.786Z,17.50
2022-10-08T19:19:04.538Z,17.70
2022-10-08T19:22:07.124Z,19.48
2022-10-08T19:25:10.389Z,18.83
2022-10-08T19:28:13.126Z,18.77
2022-10-08T19:31:40.149Z,18.33
2022-10-08T19:34:43.003Z,17.48
2022-10-08T19:37:47.732Z,19.12
2022-10-08T19:40:50.297Z,21.87
2022-10-08T19:46:56.235Z,21.07
2022-10-08T19:49:59.962Z,21.05
2022-10-08T19:53:04.194Z,21.85
2022-10-08T19:56:08.912Z,18.73
2022-10-08T19:59:12.345Z,18.80
2022-10-08T20:02:15.309Z,22.37
2022-10-08T20:05:18.103Z,20.52
2022-10-08T20:08:20.957Z,21.48
2022-10-08T20:11:24.240Z,20.58
2022-10-08T20:14:27.579Z,19.37
2022-10-08T20:17:30.674Z,19.37
2022-10-08T20:20:33.894Z,19.98
2022-10-08T20:23:38.218Z,26.55
2022-10-08T20:26:43.017Z,22.17
2022-10-08T20:29:46.502Z,21.05
2022-10-08T20:32:49.526Z,24.95
2022-10-08T20:35:52.507Z,21.67
2022-10-08T20:38:56.260Z,20.95
2022-10-08T20:42:03.294Z,21.95
2022-10-08T20:45:07.426Z,20.98
2022-10-08T20:48:10.201Z,23.23
2022-10-08T20:51:18.499Z,22.52
2022-10-08T20:54:21.281Z,22.20
2022-10-08T20:57:23.917Z,21.52
2022-10-08T21:00:26.709Z,22.20
2022-10-08T21:03:30.464Z,24.37
2022-10-08T21:06:41.537Z,22.60
2022-10-08T21:09:44.212Z,19.85
2022-10-08T21:12:47.354Z,19.92
2022-10-08T21:15:59.824Z,21.15
2022-10-08T21:19:05.574Z,22.33
2022-10-08T21:22:10.689Z,23.27
2022-10-08T21:25:13.641Z,20.27
2022-10-08T21:28:16.412Z,21.08
2022-10-08T21:31:21.143Z,22.02
2022-10-08T21:34:24.096Z,20.92
2022-10-08T21:37:26.811Z,21.50
2022-10-08T21:40:29.488Z,18.77
2022-10-08T21:43:32.384Z,18.35
2022-10-08T21:46:37.487Z,20.33
2022-10-08T21:49:40.199Z,20.37
2022-10-08T21:52:42.893Z,18.60
2022-10-08T21:55:54.502Z,20.27
2022-10-08T21:59:00.392Z,20.17
2022-10-08T22:02:03.417Z,20.92
2022-10-08T22:05:06.602Z,20.58
2022-10-08T22:08:09.319Z,19.17
2022-10-08T22:11:12.615Z,22.42
2022-10-08T22:14:15.952Z,19.40
2022-10-08T22:17:18.852Z,19.25
2022-10-08T22:20:21.391Z,21.40
2022-10-08T22:23:24.379Z,24.17
2022-10-08T22:26:30.189Z,20.83
2022-10-08T22:29:34.271Z,19.95
2022-10-08T22:32:36.785Z,20.45
2022-10-08T22:35:39.845Z,21.25
2022-10-08T22:38:58.438Z,21.95
2022-10-08T22:42:01.606Z,23.35
2022-10-08T22:45:04.357Z,23.80
2022-10-08T22:51:21.770Z,21.58
2022-10-08T22:54:24.698Z,21.50
2022-10-08T22:57:27.298Z,22.83
2022-10-08T23:00:30.214Z,21.65
2022-10-08T23:03:33.330Z,21.30
2022-10-08T23:06:36.731Z,19.75
2022-10-08T23:09:58.060Z,20.15
2022-10-08T23:16:35.687Z,21.90
2022-10-08T23:19:39.264Z,23.62
2022-10-08T23:22:41.718Z,20.60
2022-10-08T23:25:59.287Z,20.67
2022-10-08T23:29:02.504Z,21.15
2022-10-08T23:32:08.041Z,22.25
2022-10-08T23:35:10.621Z,20.00
2022-10-08T23:38:14.296Z,20.62
2022-10-08T23:50:26.965Z,24.10
2022-10-08T23:53:29.922Z,24.73
2022-10-08T23:56:33.060Z,23.25
2022-10-08T23:59:35.499Z,24.45
